Red Oak — V7EY8 — position and weather

sailwx.info

Track history (hours):
 
Tides and Currents Weather Stations Pressure Air Temp Water Temp Dewpoint Dewpoint Depression Visibility Wind Speed Wind Dir Waves Ship Positions

Red Oak

Last reported at 2018-Feb-17 02:06 UTC. Time now 2018-Feb-26 02:06 UTC.
Position N 36°42' E 014°29'.
Warning: this ship's position is 8 days out of date.

Length 129 m; draft 5.6 m.

Type: Ship. MMSI: 538005569.

Date/timePositionNaut miles runAvg speedWind from/ knotsBaromVisibWave heightAir tempDewpointWater temp
2018-Feb-17 02:06N 36°42' E 014°29'215.0
2018-Feb-17 02:00N 36°43' E 014°27'714.7
2018-Feb-17 01:30N 36°46' E 014°19'714.3
2018-Feb-17 01:00N 36°49' E 014°11'714.1
2018-Feb-17 00:30N 36°52' E 014°03'714.1
2018-Feb-17 00:00N 36°56' E 013°56'713.9
2018-Feb-16 23:30N 36°59' E 013°48'  
2018-Feb-14 08:51N 35°60' W 005°13'516.0
2018-Feb-14 08:30N 35°59' W 005°19'815.8
2018-Feb-14 08:00N 35°57' W 005°28'  
2018-Feb-11 18:53N 37°51' W 024°05'614.7
2018-Feb-11 18:30N 37°51' W 024°12'714.7
2018-Feb-11 18:00N 37°52' W 024°21'714.5
2018-Feb-11 17:30N 37°52' W 024°30'714.6
2018-Feb-11 17:00N 37°53' W 024°39'714.3
2018-Feb-11 16:30N 37°53' W 024°48'713.8
2018-Feb-11 16:00N 37°54' W 024°57'713.7
2018-Feb-11 15:30N 37°55' W 025°06'1013.7
2018-Feb-11 14:47N 37°55' W 025°18'413.7
2018-Feb-11 14:30N 37°56' W 025°23'713.9
2018-Feb-11 14:00N 37°57' W 025°32'714.2
2018-Feb-11 13:30N 37°57' W 025°41'814.1
2018-Feb-11 12:56N 37°58' W 025°51'614.3
2018-Feb-11 12:30N 37°59' W 025°59'714.3
2018-Feb-11 12:00N 38°00' W 026°08'714.3
2018-Feb-11 11:30N 38°02' W 026°16'714.3
2018-Feb-11 11:00N 38°04' W 026°25'713.9
2018-Feb-11 10:30N 38°07' W 026°33'714.1
2018-Feb-11 10:00N 38°10' W 026°41'714.4
2018-Feb-11 09:30N 38°12' W 026°50'714.5
2018-Feb-11 09:00N 38°15' W 026°59'714.4
2018-Feb-11 08:30N 38°17' W 027°07'714.1
2018-Feb-11 08:00N 38°18' W 027°16'714.2
2018-Feb-11 07:31N 38°18' W 027°25'713.9
2018-Feb-11 07:00N 38°18' W 027°34'714.0
2018-Feb-11 06:30N 38°18' W 027°43'714.1
2018-Feb-11 06:01N 38°18' W 027°52'714.0
2018-Feb-11 05:31N 38°18' W 028°01'714.3
2018-Feb-11 05:00N 38°17' W 028°10'714.4
2018-Feb-11 04:30N 38°17' W 028°19'713.9
2018-Feb-11 04:00N 38°17' W 028°28'713.8
2018-Feb-11 03:30N 38°17' W 028°37'713.8
2018-Feb-11 03:01N 38°16' W 028°46'713.4
2018-Feb-11 02:30N 38°17' W 028°54'714.2
2018-Feb-11 02:00N 38°17' W 029°03'714.0
2018-Feb-11 01:30N 38°18' W 029°12'714.2
2018-Feb-11 01:00N 38°18' W 029°21'714.2
2018-Feb-11 00:30N 38°19' W 029°30'714.5
2018-Feb-11 00:00N 38°19' W 029°39'714.7
2018-Feb-10 23:30N 38°20' W 029°49'714.4
2018-Feb-10 23:01N 38°21' W 029°58'714.1
2018-Feb-10 22:30N 38°21' W 030°07'714.2
2018-Feb-10 22:00N 38°22' W 030°16'714.1
2018-Feb-10 21:31N 38°23' W 030°25'713.9
2018-Feb-10 21:00N 38°24' W 030°33'714.0
2018-Feb-10 20:30N 38°25' W 030°42'714.2
2018-Feb-10 20:00N 38°25' W 030°51'714.1
2018-Feb-10 19:30N 38°26' W 031°00'714.5
2018-Feb-10 19:00N 38°26' W 031°10'714.2
2018-Feb-10 18:30N 38°27' W 031°19'714.1
2018-Feb-10 18:00N 38°28' W 031°28'  
Track history (hours):
 
Tides and Currents Weather Stations Pressure Air Temp Water Temp Dewpoint Dewpoint Depression Visibility Wind Speed Wind Dir Waves Ship Positions

Red Oak

Last reported at 2018-Feb-17 02:06 UTC. Time now 2018-Feb-26 02:06 UTC.
Position N 36°42' E 014°29'.
Warning: this ship's position is 8 days out of date.

Length 129 m; draft 5.6 m.

Type: Ship. MMSI: 538005569.

Date/timePositionNaut miles runAvg speedWind from/ knotsBaromVisibWave heightAir tempDewpointWater temp
2018-Feb-17 02:06N 36°42' E 014°29'215.0
2018-Feb-17 02:00N 36°43' E 014°27'714.7
2018-Feb-17 01:30N 36°46' E 014°19'714.3
2018-Feb-17 01:00N 36°49' E 014°11'714.1
2018-Feb-17 00:30N 36°52' E 014°03'714.1
2018-Feb-17 00:00N 36°56' E 013°56'713.9
2018-Feb-16 23:30N 36°59' E 013°48'  
2018-Feb-14 08:51N 35°60' W 005°13'516.0
2018-Feb-14 08:30N 35°59' W 005°19'815.8
2018-Feb-14 08:00N 35°57' W 005°28'  
2018-Feb-11 18:53N 37°51' W 024°05'614.7
2018-Feb-11 18:30N 37°51' W 024°12'714.7
2018-Feb-11 18:00N 37°52' W 024°21'714.5
2018-Feb-11 17:30N 37°52' W 024°30'714.6
2018-Feb-11 17:00N 37°53' W 024°39'714.3
2018-Feb-11 16:30N 37°53' W 024°48'713.8
2018-Feb-11 16:00N 37°54' W 024°57'713.7
2018-Feb-11 15:30N 37°55' W 025°06'1013.7
2018-Feb-11 14:47N 37°55' W 025°18'413.7
2018-Feb-11 14:30N 37°56' W 025°23'713.9
2018-Feb-11 14:00N 37°57' W 025°32'714.2
2018-Feb-11 13:30N 37°57' W 025°41'814.1
2018-Feb-11 12:56N 37°58' W 025°51'614.3
2018-Feb-11 12:30N 37°59' W 025°59'714.3
2018-Feb-11 12:00N 38°00' W 026°08'714.3
2018-Feb-11 11:30N 38°02' W 026°16'714.3
2018-Feb-11 11:00N 38°04' W 026°25'713.9
2018-Feb-11 10:30N 38°07' W 026°33'714.1
2018-Feb-11 10:00N 38°10' W 026°41'714.4
2018-Feb-11 09:30N 38°12' W 026°50'714.5
2018-Feb-11 09:00N 38°15' W 026°59'714.4
2018-Feb-11 08:30N 38°17' W 027°07'714.1
2018-Feb-11 08:00N 38°18' W 027°16'714.2
2018-Feb-11 07:31N 38°18' W 027°25'713.9
2018-Feb-11 07:00N 38°18' W 027°34'714.0
2018-Feb-11 06:30N 38°18' W 027°43'714.1
2018-Feb-11 06:01N 38°18' W 027°52'714.0
2018-Feb-11 05:31N 38°18' W 028°01'714.3
2018-Feb-11 05:00N 38°17' W 028°10'714.4
2018-Feb-11 04:30N 38°17' W 028°19'713.9
2018-Feb-11 04:00N 38°17' W 028°28'713.8
2018-Feb-11 03:30N 38°17' W 028°37'713.8
2018-Feb-11 03:01N 38°16' W 028°46'713.4
2018-Feb-11 02:30N 38°17' W 028°54'714.2
2018-Feb-11 02:00N 38°17' W 029°03'714.0
2018-Feb-11 01:30N 38°18' W 029°12'714.2
2018-Feb-11 01:00N 38°18' W 029°21'714.2
2018-Feb-11 00:30N 38°19' W 029°30'714.5
2018-Feb-11 00:00N 38°19' W 029°39'714.7
2018-Feb-10 23:30N 38°20' W 029°49'714.4
2018-Feb-10 23:01N 38°21' W 029°58'714.1
2018-Feb-10 22:30N 38°21' W 030°07'714.2
2018-Feb-10 22:00N 38°22' W 030°16'714.1
2018-Feb-10 21:31N 38°23' W 030°25'713.9
2018-Feb-10 21:00N 38°24' W 030°33'714.0
2018-Feb-10 20:30N 38°25' W 030°42'714.2
2018-Feb-10 20:00N 38°25' W 030°51'714.1
2018-Feb-10 19:30N 38°26' W 031°00'714.5
2018-Feb-10 19:00N 38°26' W 031°10'714.2
2018-Feb-10 18:30N 38°27' W 031°19'714.1
2018-Feb-10 18:00N 38°28' W 031°28'  

Dump ship's entire track history